createdAt,value
2023-04-20T00:00:36.210Z,101620.50
2023-04-20T00:01:27.827Z,101621.28
2023-04-20T00:02:19.577Z,101622.47
2023-04-20T00:03:12.625Z,101614.13
2023-04-20T00:04:04.981Z,101605.66
2023-04-20T00:04:56.524Z,101614.38
2023-04-20T00:05:50.751Z,101604.22
2023-04-20T00:06:43.944Z,101612.94
2023-04-20T00:07:41.449Z,101607.66
2023-04-20T00:08:32.935Z,101607.59
2023-04-20T00:09:24.904Z,101609.13
2023-04-20T00:10:16.488Z,101606.53
2023-04-20T00:11:07.878Z,101609.88
2023-04-20T00:11:59.363Z,101604.75
2023-04-20T00:12:50.754Z,101598.72
2023-04-20T00:13:42.777Z,101602.97
2023-04-20T00:14:34.268Z,101598.63
2023-04-20T00:15:25.866Z,101600.41
2023-04-20T00:16:17.903Z,101599.53
2023-04-20T00:17:09.389Z,101603.78
2023-04-20T00:18:02.402Z,101587.31
2023-04-20T00:18:53.925Z,101598.41
2023-04-20T00:19:46.237Z,101592.41
2023-04-20T00:20:38.480Z,101599.28
2023-04-20T00:21:29.970Z,101593.06
2023-04-20T00:22:21.385Z,101587.25
2023-04-20T00:23:12.742Z,101587.16
2023-04-20T00:24:04.390Z,101587.16
2023-04-20T00:24:55.907Z,101583.69
2023-04-20T00:25:51.090Z,101584.41
2023-04-20T00:26:42.592Z,101581.72
2023-04-20T00:27:34.184Z,101584.97
2023-04-20T00:28:25.690Z,101573.81
2023-04-20T00:29:17.391Z,101571.38
2023-04-20T00:30:10.215Z,101575.19
2023-04-20T00:31:01.682Z,101569.22
2023-04-20T00:31:53.093Z,101560.66
2023-04-20T00:32:44.560Z,101568.69
2023-04-20T00:33:39.019Z,101562.53
2023-04-20T00:34:32.416Z,101560.00
2023-04-20T00:35:27.663Z,101556.72
2023-04-20T00:36:19.085Z,101555.16
2023-04-20T00:37:10.565Z,101555.25
2023-04-20T00:38:01.981Z,101558.56
2023-04-20T00:38:54.500Z,101550.91
2023-04-20T00:39:45.959Z,101557.09
2023-04-20T00:40:37.474Z,101553.19
2023-04-20T00:41:29.275Z,101554.47
2023-04-20T00:42:20.751Z,101544.28
2023-04-20T00:43:14.078Z,101543.47
2023-04-20T00:44:08.072Z,101550.41
2023-04-20T00:45:00.761Z,101547.81
2023-04-20T00:45:52.569Z,101545.34
2023-04-20T00:46:44.055Z,101550.50
2023-04-20T00:47:35.715Z,101539.19
2023-04-20T00:48:27.860Z,101544.44
2023-04-20T00:49:19.776Z,101535.28
2023-04-20T00:50:12.865Z,101541.28
2023-04-20T00:51:04.377Z,101539.41
2023-04-20T00:51:57.827Z,101540.38
2023-04-20T00:52:49.404Z,101532.56
2023-04-20T00:53:42.218Z,101535.84
2023-04-20T00:54:35.875Z,101535.03
2023-04-20T00:55:28.117Z,101525.66
2023-04-20T00:56:19.862Z,101525.66
2023-04-20T00:57:15.510Z,101534.19
2023-04-20T00:58:07.090Z,101531.91
2023-04-20T00:58:58.974Z,101531.84
2023-04-20T00:59:56.235Z,101523.91
2023-04-20T01:00:50.792Z,101525.09
2023-04-20T01:01:42.985Z,101528.66
2023-04-20T01:02:35.131Z,101527.13
2023-04-20T01:03:27.128Z,101516.69
2023-04-20T01:04:19.176Z,101521.03
2023-04-20T01:05:10.776Z,101516.78
2023-04-20T01:06:02.889Z,101501.91
2023-04-20T01:06:54.270Z,101512.25
2023-04-20T01:07:46.504Z,101510.56
2023-04-20T01:08:52.290Z,101507.31
2023-04-20T01:09:43.690Z,101495.94
2023-04-20T01:10:35.193Z,101507.00
2023-04-20T01:11:26.713Z,101507.81
2023-04-20T01:12:18.079Z,101506.19
2023-04-20T01:13:09.613Z,101503.53
2023-04-20T01:14:01.329Z,101509.53
2023-04-20T01:14:55.888Z,101510.50
2023-04-20T01:15:51.268Z,101508.63
2023-04-20T01:16:47.043Z,101503.38
2023-04-20T01:17:41.908Z,101506.84
2023-04-20T01:18:47.330Z,101499.81
2023-04-20T01:19:38.869Z,101500.72
2023-04-20T01:20:30.510Z,101502.34
2023-04-20T01:21:22.351Z,101511.72
2023-04-20T01:22:18.187Z,101503.16
2023-04-20T01:23:12.299Z,101504.78
2023-04-20T01:24:04.000Z,101502.25
2023-04-20T01:24:57.210Z,101499.50
2023-04-20T01:25:51.419Z,101500.16
2023-04-20T01:26:42.777Z,101495.75
2023-04-20T01:27:34.578Z,101493.97
2023-04-20T01:28:28.063Z,101494.78
2023-04-20T01:29:19.632Z,101497.94
2023-04-20T01:30:12.337Z,101493.41
2023-04-20T01:31:08.348Z,101492.16
2023-04-20T01:32:00.095Z,101500.00
2023-04-20T01:32:51.880Z,101495.41
2023-04-20T01:33:43.321Z,101497.19
2023-04-20T01:34:34.824Z,101495.50
2023-04-20T01:35:26.237Z,101487.75
2023-04-20T01:36:19.229Z,101496.38
2023-04-20T01:37:10.848Z,101489.38
2023-04-20T01:38:06.439Z,101489.38
2023-04-20T01:38:57.907Z,101489.25
2023-04-20T01:39:49.437Z,101484.03
2023-04-20T01:40:40.940Z,101484.03
2023-04-20T01:41:32.370Z,101481.34
2023-04-20T01:42:25.684Z,101481.19
2023-04-20T01:43:17.990Z,101481.28
2023-04-20T01:44:09.766Z,101484.59
2023-04-20T01:45:04.085Z,101489.75
2023-04-20T01:45:55.838Z,101477.81
2023-04-20T01:46:47.322Z,101481.44
2023-04-20T01:47:38.980Z,101478.06
2023-04-20T01:48:35.005Z,101484.25
2023-04-20T01:49:26.596Z,101480.00
2023-04-20T01:50:18.079Z,101478.69
2023-04-20T01:51:09.585Z,101481.44
2023-04-20T01:52:01.057Z,101485.09
2023-04-20T01:52:54.646Z,101483.38
2023-04-20T01:53:46.116Z,101480.06
2023-04-20T01:54:37.626Z,101481.91
2023-04-20T01:55:29.398Z,101478.50
2023-04-20T01:56:20.940Z,101481.19
2023-04-20T01:57:13.413Z,101475.13
2023-04-20T01:58:06.530Z,101480.38
2023-04-20T01:58:58.462Z,101467.34
2023-04-20T01:59:50.229Z,101471.72
2023-04-20T02:00:41.709Z,101476.16
2023-04-20T02:01:34.659Z,101470.19
2023-04-20T02:02:26.276Z,101466.84
2023-04-20T02:03:18.863Z,101466.13
2023-04-20T02:04:12.046Z,101469.09
2023-04-20T02:05:05.217Z,101462.31
2023-04-20T02:05:56.761Z,101465.72
2023-04-20T02:06:52.622Z,101458.81
2023-04-20T02:07:44.048Z,101455.28
2023-04-20T02:08:35.788Z,101461.41
2023-04-20T02:09:27.494Z,101467.38
2023-04-20T02:10:19.023Z,101459.72
2023-04-20T02:11:11.095Z,101459.72
2023-04-20T02:12:03.181Z,101454.25
2023-04-20T02:12:54.644Z,101454.97
2023-04-20T02:13:46.041Z,101447.38
2023-04-20T02:14:37.467Z,101451.66
2023-04-20T02:15:29.091Z,101445.69
2023-04-20T02:16:23.014Z,101443.00
2023-04-20T02:17:14.656Z,101449.09
2023-04-20T02:18:06.786Z,101443.09
2023-04-20T02:18:59.406Z,101439.69
2023-04-20T02:19:52.288Z,101439.69
2023-04-20T02:20:44.984Z,101435.41
2023-04-20T02:21:36.458Z,101439.59
2023-04-20T02:22:28.232Z,101433.47
2023-04-20T02:23:19.639Z,101436.94
2023-04-20T02:24:11.185Z,101430.97
2023-04-20T02:25:07.098Z,101431.84
2023-04-20T02:25:58.754Z,101428.41
2023-04-20T02:26:51.233Z,101434.53
2023-04-20T02:27:42.705Z,101433.56
2023-04-20T02:28:36.064Z,101440.31
2023-04-20T02:29:29.638Z,101436.16
2023-04-20T02:30:21.490Z,101423.28
2023-04-20T02:31:12.912Z,101429.25
2023-04-20T02:32:04.822Z,101429.25
2023-04-20T02:32:58.901Z,101420.44
2023-04-20T02:33:50.491Z,101422.88
2023-04-20T02:34:43.638Z,101416.84
2023-04-20T02:35:35.166Z,101416.09
2023-04-20T02:36:28.203Z,101417.16
2023-04-20T02:37:19.692Z,101413.97
2023-04-20T02:38:13.844Z,101414.03
2023-04-20T02:39:06.047Z,101415.22
2023-04-20T02:39:58.899Z,101406.66
2023-04-20T02:40:51.946Z,101409.25
2023-04-20T02:41:44.163Z,101407.34
2023-04-20T02:42:36.538Z,101408.28
2023-04-20T02:43:31.018Z,101403.94
2023-04-20T02:44:23.539Z,101402.31
2023-04-20T02:45:14.978Z,101403.84
2023-04-20T02:46:09.741Z,101395.94
2023-04-20T02:47:01.636Z,101394.16
2023-04-20T02:47:53.084Z,101396.69
2023-04-20T02:48:45.673Z,101394.03
2023-04-20T02:49:37.601Z,101393.16
2023-04-20T02:50:29.107Z,101391.38
2023-04-20T02:51:28.572Z,101389.59
2023-04-20T02:52:20.143Z,101390.47
2023-04-20T02:53:13.707Z,101392.25
2023-04-20T02:54:05.582Z,101388.84
2023-04-20T02:54:57.308Z,101393.28
2023-04-20T02:55:48.934Z,101389.06
2023-04-20T02:56:50.744Z,101400.38
2023-04-20T02:57:42.568Z,101394.31
2023-04-20T02:58:34.247Z,101389.00
2023-04-20T02:59:44.312Z,101394.09
2023-04-20T03:00:41.216Z,101392.25
2023-04-20T03:01:33.890Z,101396.53
2023-04-20T03:02:33.320Z,101393.28
2023-04-20T03:03:28.153Z,101393.19
2023-04-20T03:04:21.013Z,101386.25
2023-04-20T03:05:19.907Z,101387.97
2023-04-20T03:06:12.352Z,101386.25
2023-04-20T03:07:07.189Z,101386.94
2023-04-20T03:08:01.324Z,101389.41
2023-04-20T03:08:52.979Z,101387.78
2023-04-20T03:10:06.191Z,101394.81
2023-04-20T03:11:11.656Z,101388.56
2023-04-20T03:12:04.385Z,101388.56
2023-04-20T03:13:10.903Z,101386.13
2023-04-20T03:14:24.293Z,101387.75
2023-04-20T03:15:16.959Z,101386.19
2023-04-20T03:16:18.261Z,101387.16
2023-04-20T03:17:13.803Z,101388.69
2023-04-20T03:18:08.420Z,101383.53
2023-04-20T03:19:03.067Z,101383.44
2023-04-20T03:19:54.788Z,101382.00
2023-04-20T03:20:54.024Z,101383.66
2023-04-20T03:21:45.630Z,101373.56
2023-04-20T03:22:37.070Z,101379.56
2023-04-20T03:23:28.774Z,101385.38
2023-04-20T03:24:20.336Z,101382.81
2023-04-20T03:25:11.931Z,101385.38
2023-04-20T03:26:15.762Z,101387.97
2023-04-20T03:27:23.390Z,101380.22
2023-04-20T03:28:27.106Z,101381.91
2023-04-20T03:29:19.027Z,101373.28
2023-04-20T03:30:11.405Z,101375.84
2023-04-20T03:31:03.366Z,101369.78
2023-04-20T03:31:55.640Z,101366.25
2023-04-20T03:32:49.370Z,101375.53
2023-04-20T03:33:40.858Z,101371.50
2023-04-20T03:34:33.008Z,101376.72
2023-04-20T03:35:24.742Z,101369.13
2023-04-20T03:36:16.213Z,101374.09
2023-04-20T03:37:10.104Z,101375.69
2023-04-20T03:38:01.599Z,101374.88
2023-04-20T03:38:53.050Z,101367.34
2023-04-20T03:39:45.078Z,101370.88
2023-04-20T03:40:37.623Z,101375.09
2023-04-20T03:41:30.787Z,101373.28
2023-04-20T03:42:22.237Z,101373.28
2023-04-20T03:43:15.980Z,101375.75
2023-04-20T03:44:07.847Z,101374.72
2023-04-20T03:45:01.583Z,101372.13
2023-04-20T03:45:57.025Z,101366.91
2023-04-20T03:46:48.634Z,101366.81
2023-04-20T03:47:40.238Z,101362.16
2023-04-20T03:48:32.537Z,101363.88
2023-04-20T03:49:25.465Z,101359.72
2023-04-20T03:50:17.048Z,101355.38
2023-04-20T03:51:10.968Z,101358.84
2023-04-20T03:52:02.907Z,101357.22
2023-04-20T03:52:54.483Z,101354.66
2023-04-20T03:53:45.948Z,101353.84
2023-04-20T03:54:38.542Z,101347.75
2023-04-20T03:55:30.134Z,101356.19
2023-04-20T03:56:27.281Z,101354.50
2023-04-20T03:57:19.615Z,101351.91
2023-04-20T03:58:11.551Z,101351.91
2023-04-20T03:59:19.873Z,101353.59
2023-04-20T04:00:14.157Z,101353.31
2023-04-20T04:01:13.236Z,101354.22
2023-04-20T04:02:13.601Z,101352.50
2023-04-20T04:03:07.985Z,101349.91
2023-04-20T04:03:59.886Z,101354.34
2023-04-20T04:04:51.733Z,101353.44
2023-04-20T04:05:52.623Z,101357.09
2023-04-20T04:06:46.584Z,101353.44
2023-04-20T04:07:38.988Z,101357.00
2023-04-20T04:08:32.540Z,101350.88
2023-04-20T04:09:26.582Z,101355.22
2023-04-20T04:10:19.199Z,101350.81
2023-04-20T04:11:10.884Z,101350.16
2023-04-20T04:12:04.518Z,101353.69
2023-04-20T04:12:56.030Z,101352.72
2023-04-20T04:13:47.786Z,101354.50
2023-04-20T04:14:39.575Z,101345.94
2023-04-20T04:15:32.005Z,101348.38
2023-04-20T04:16:27.960Z,101355.22
2023-04-20T04:17:19.889Z,101344.00
2023-04-20T04:18:11.855Z,101351.91
2023-04-20T04:19:05.029Z,101347.75
2023-04-20T04:19:56.712Z,101350.34
2023-04-20T04:20:48.452Z,101353.06
2023-04-20T04:21:40.055Z,101343.69
2023-04-20T04:22:31.689Z,101351.59
2023-04-20T04:23:52.648Z,101348.81
2023-04-20T04:24:58.752Z,101347.03
2023-04-20T04:25:50.520Z,101345.16
2023-04-20T04:26:48.586Z,101349.31
2023-04-20T04:27:40.637Z,101349.31
2023-04-20T04:28:33.288Z,101344.88
2023-04-20T04:29:39.902Z,101354.41
2023-04-20T04:30:34.987Z,101346.81
2023-04-20T04:31:28.564Z,101342.72
2023-04-20T04:32:26.751Z,101348.72
2023-04-20T04:33:22.065Z,101353.84
2023-04-20T04:34:15.383Z,101349.53
2023-04-20T04:35:13.936Z,101349.53
2023-04-20T04:36:06.217Z,101349.38
2023-04-20T04:36:59.175Z,101348.50
2023-04-20T04:38:02.745Z,101346.88
2023-04-20T04:38:54.412Z,101348.56
2023-04-20T04:39:46.496Z,101345.03
2023-04-20T04:40:46.997Z,101338.59
2023-04-20T04:41:38.552Z,101343.06
2023-04-20T04:42:40.947Z,101342.25
2023-04-20T04:43:33.489Z,101341.03
2023-04-20T04:44:33.902Z,101339.38
2023-04-20T04:45:26.207Z,101336.09
2023-04-20T04:46:17.948Z,101336.03
2023-04-20T04:47:21.875Z,101341.94
2023-04-20T04:48:13.775Z,101337.75
2023-04-20T04:49:05.783Z,101340.97
2023-04-20T04:49:57.506Z,101333.94
2023-04-20T04:50:48.999Z,101342.53
2023-04-20T04:51:40.521Z,101343.47
2023-04-20T04:52:33.657Z,101335.59
2023-04-20T04:53:25.125Z,101339.28
2023-04-20T04:54:17.724Z,101337.59
2023-04-20T04:55:09.846Z,101340.91
2023-04-20T04:56:01.474Z,101339.28
2023-04-20T04:56:52.889Z,101336.50
2023-04-20T04:57:48.626Z,101333.28
2023-04-20T04:58:42.258Z,101329.63
2023-04-20T04:59:36.825Z,101335.16
2023-04-20T05:00:29.268Z,101331.81
2023-04-20T05:01:21.336Z,101337.75
2023-04-20T05:02:12.895Z,101336.97
2023-04-20T05:03:04.512Z,101334.41
2023-04-20T05:03:56.453Z,101334.53
2023-04-20T05:04:48.210Z,101336.41
2023-04-20T05:05:39.927Z,101342.38
2023-04-20T05:06:31.330Z,101338.03
2023-04-20T05:07:25.132Z,101339.84
2023-04-20T05:08:16.697Z,101335.34
2023-04-20T05:09:08.128Z,101334.69
2023-04-20T05:09:59.735Z,101334.78
2023-04-20T05:10:51.135Z,101340.91
2023-04-20T05:11:42.864Z,101331.28
2023-04-20T05:12:34.808Z,101329.66
2023-04-20T05:13:26.478Z,101333.19
2023-04-20T05:14:17.842Z,101334.97
2023-04-20T05:15:09.690Z,101331.56
2023-04-20T05:16:01.209Z,101329.88
2023-04-20T05:16:53.046Z,101336.25
2023-04-20T05:17:44.565Z,101330.47
2023-04-20T05:18:38.389Z,101337.41
2023-04-20T05:19:29.872Z,101336.72
2023-04-20T05:20:21.558Z,101329.72
2023-04-20T05:21:13.010Z,101336.69
2023-04-20T05:22:05.992Z,101333.34
2023-04-20T05:22:57.616Z,101325.03
2023-04-20T05:23:49.225Z,101321.81
2023-04-20T05:24:41.363Z,101329.56
2023-04-20T05:25:32.970Z,101327.03
2023-04-20T05:26:24.470Z,101327.19
2023-04-20T05:27:16.081Z,101332.44
2023-04-20T05:28:07.649Z,101330.81
2023-04-20T05:29:01.558Z,101331.53
2023-04-20T05:29:53.021Z,101328.00
2023-04-20T05:30:44.635Z,101331.53
2023-04-20T05:31:36.533Z,101327.25
2023-04-20T05:32:28.070Z,101334.06
2023-04-20T05:33:19.463Z,101331.63
2023-04-20T05:34:11.043Z,101336.66
2023-04-20T05:35:02.490Z,101337.63
2023-04-20T05:35:57.766Z,101335.84
2023-04-20T05:36:49.216Z,101331.75
2023-04-20T05:37:40.892Z,101333.44
2023-04-20T05:38:32.299Z,101335.31
2023-04-20T05:39:23.825Z,101328.34
2023-04-20T05:40:15.869Z,101336.25
2023-04-20T05:41:07.365Z,101337.25
2023-04-20T05:41:58.814Z,101340.75
2023-04-20T05:42:50.432Z,101338.22
2023-04-20T05:43:42.055Z,101338.31
2023-04-20T05:44:33.921Z,101340.06
2023-04-20T05:45:25.620Z,101339.34
2023-04-20T05:46:17.100Z,101336.88
2023-04-20T05:47:08.828Z,101335.25
2023-04-20T05:48:00.623Z,101340.44
2023-04-20T05:48:52.151Z,101335.41
2023-04-20T05:49:46.056Z,101336.22
2023-04-20T05:50:37.560Z,101336.25
2023-04-20T05:51:30.381Z,101338.81
2023-04-20T05:52:22.067Z,101334.50
2023-04-20T05:53:13.520Z,101332.03
2023-04-20T05:54:05.157Z,101340.63
2023-04-20T05:54:56.608Z,101337.31
2023-04-20T05:55:48.209Z,101339.94
2023-04-20T05:56:39.620Z,101337.22
2023-04-20T05:57:31.092Z,101342.47
2023-04-20T05:58:22.626Z,101335.41
2023-04-20T05:59:17.929Z,101337.09
2023-04-20T06:00:11.958Z,101344.13
2023-04-20T06:01:06.603Z,101337.16
2023-04-20T06:01:58.076Z,101338.84
2023-04-20T06:02:49.811Z,101331.31
2023-04-20T06:03:41.540Z,101336.34
2023-04-20T06:04:33.746Z,101338.81
2023-04-20T06:05:25.393Z,101337.22
2023-04-20T06:06:16.975Z,101339.88
2023-04-20T06:07:08.491Z,101339.94
2023-04-20T06:07:59.870Z,101337.31
2023-04-20T06:08:52.378Z,101335.59
2023-04-20T06:09:44.228Z,101335.44
2023-04-20T06:10:35.877Z,101334.34
2023-04-20T06:11:27.366Z,101335.25
2023-04-20T06:12:18.808Z,101337.56
2023-04-20T06:13:12.454Z,101337.72
2023-04-20T06:14:03.952Z,101336.81
2023-04-20T06:14:58.916Z,101334.63
2023-04-20T06:15:50.434Z,101334.03
2023-04-20T06:16:41.862Z,101333.03
2023-04-20T06:17:36.021Z,101337.34
2023-04-20T06:18:28.302Z,101335.44
2023-04-20T06:19:19.742Z,101333.00
2023-04-20T06:20:11.645Z,101336.25
2023-04-20T06:21:04.162Z,101331.09
2023-04-20T06:21:58.940Z,101332.72
2023-04-20T06:22:52.328Z,101338.63
2023-04-20T06:23:47.292Z,101335.31
2023-04-20T06:24:38.817Z,101332.63
2023-04-20T06:25:30.864Z,101335.44
2023-04-20T06:26:23.166Z,101329.44
2023-04-20T06:27:14.613Z,101329.44
2023-04-20T06:28:06.666Z,101323.50
2023-04-20T06:28:58.219Z,101328.63
2023-04-20T06:29:50.634Z,101325.97
2023-04-20T06:30:42.041Z,101324.72
2023-04-20T06:31:33.524Z,101325.78
2023-04-20T06:32:24.972Z,101331.13
2023-04-20T06:33:18.944Z,101318.28
2023-04-20T06:34:12.772Z,101329.63
2023-04-20T06:35:05.068Z,101322.63
2023-04-20T06:35:56.908Z,101323.59
2023-04-20T06:36:48.271Z,101323.50
2023-04-20T06:37:40.889Z,101330.44
2023-04-20T06:38:32.530Z,101322.03
2023-04-20T06:39:23.917Z,101322.88
2023-04-20T06:40:16.349Z,101321.88
2023-04-20T06:41:08.114Z,101325.28
2023-04-20T06:42:02.382Z,101324.53
2023-04-20T06:42:56.336Z,101328.84
2023-04-20T06:43:47.856Z,101327.13
2023-04-20T06:44:39.799Z,101329.81
2023-04-20T06:45:33.602Z,101324.31
2023-04-20T06:46:25.831Z,101324.28
2023-04-20T06:47:17.353Z,101322.56
2023-04-20T06:48:23.605Z,101321.75
2023-04-20T06:49:21.008Z,101333.44
2023-04-20T06:50:12.765Z,101323.22
2023-04-20T06:51:04.413Z,101324.19
2023-04-20T06:51:56.072Z,101319.09
2023-04-20T06:52:48.352Z,101328.69
2023-04-20T06:53:39.753Z,101321.69
2023-04-20T06:54:32.381Z,101330.44
2023-04-20T06:55:23.963Z,101321.88
2023-04-20T06:56:15.844Z,101326.31
2023-04-20T06:57:07.304Z,101323.94
2023-04-20T06:58:01.163Z,101327.41
2023-04-20T06:58:52.778Z,101324.09
2023-04-20T06:59:47.332Z,101314.59
2023-04-20T07:00:40.200Z,101322.31
2023-04-20T07:01:31.599Z,101317.13
2023-04-20T07:02:23.306Z,101321.28
2023-04-20T07:03:14.867Z,101320.59
2023-04-20T07:04:06.572Z,101318.16
2023-04-20T07:05:04.129Z,101318.16
2023-04-20T07:05:55.726Z,101324.34
2023-04-20T07:06:50.049Z,101319.91
2023-04-20T07:07:51.397Z,101322.63
2023-04-20T07:08:44.246Z,101313.19
2023-04-20T07:09:36.312Z,101320.13
2023-04-20T07:10:29.830Z,101321.22
2023-04-20T07:11:21.444Z,101322.25
2023-04-20T07:12:19.814Z,101325.97
2023-04-20T07:13:11.818Z,101323.13
2023-04-20T07:14:06.420Z,101325.03
2023-04-20T07:15:01.438Z,101326.94
2023-04-20T07:15:53.132Z,101319.50
2023-04-20T07:16:44.720Z,101331.22
2023-04-20T07:17:36.334Z,101322.13
2023-04-20T07:18:27.732Z,101318.38
2023-04-20T07:19:21.534Z,101325.81
2023-04-20T07:20:13.076Z,101319.56
2023-04-20T07:21:04.460Z,101312.19
2023-04-20T07:21:55.903Z,101320.31
2023-04-20T07:22:47.909Z,101317.03
2023-04-20T07:23:39.302Z,101318.88
2023-04-20T07:24:31.115Z,101321.47
2023-04-20T07:25:23.355Z,101321.72
2023-04-20T07:26:14.775Z,101323.69
2023-04-20T07:27:13.735Z,101315.72
2023-04-20T07:28:05.570Z,101309.63
2023-04-20T07:28:56.983Z,101313.31
2023-04-20T07:29:48.493Z,101311.91
2023-04-20T07:30:39.926Z,101311.31
2023-04-20T07:31:35.534Z,101312.50
2023-04-20T07:32:27.445Z,101315.06
2023-04-20T07:33:18.950Z,101314.34
2023-04-20T07:34:11.105Z,101313.56
2023-04-20T07:35:03.685Z,101306.78
2023-04-20T07:35:57.878Z,101309.72
2023-04-20T07:36:52.445Z,101311.38
2023-04-20T07:37:46.983Z,101312.22
2023-04-20T07:38:38.397Z,101303.75
2023-04-20T07:39:30.216Z,101301.16
2023-04-20T07:40:22.164Z,101308.13
2023-04-20T07:41:13.679Z,101301.31
2023-04-20T07:42:05.155Z,101304.28
2023-04-20T07:42:56.647Z,101303.50
2023-04-20T07:43:48.299Z,101310.47
2023-04-20T07:44:44.188Z,101302.84
2023-04-20T07:45:35.646Z,101307.22
2023-04-20T07:46:28.398Z,101305.78
2023-04-20T07:47:19.953Z,101311.91
2023-04-20T07:48:12.399Z,101308.50
2023-04-20T07:49:04.248Z,101307.63
2023-04-20T07:49:57.419Z,101308.97
2023-04-20T07:50:48.925Z,101306.09
2023-04-20T07:51:40.693Z,101305.56
2023-04-20T07:52:32.094Z,101300.25
2023-04-20T07:53:25.856Z,101303.56
2023-04-20T07:54:17.195Z,101304.91
2023-04-20T07:55:12.497Z,101303.50
2023-04-20T07:56:05.200Z,101301.81
2023-04-20T07:56:58.811Z,101304.50
2023-04-20T07:57:59.006Z,101301.09
2023-04-20T07:58:50.495Z,101304.63
2023-04-20T07:59:42.016Z,101307.50
2023-04-20T08:00:33.732Z,101305.78
2023-04-20T08:01:26.011Z,101305.06
2023-04-20T08:02:17.777Z,101300.03
2023-04-20T08:03:09.595Z,101296.75
2023-04-20T08:04:02.741Z,101300.38
2023-04-20T08:04:54.543Z,101299.44
2023-04-20T08:05:46.296Z,101296.13
2023-04-20T08:06:37.784Z,101303.91
2023-04-20T08:07:29.543Z,101296.53
2023-04-20T08:08:21.057Z,101294.75
2023-04-20T08:09:13.389Z,101295.50
2023-04-20T08:10:08.785Z,101293.84
2023-04-20T08:11:00.185Z,101291.31
2023-04-20T08:11:52.249Z,101298.41
2023-04-20T08:12:43.918Z,101294.78
2023-04-20T08:13:38.338Z,101292.59
2023-04-20T08:14:31.093Z,101295.50
2023-04-20T08:15:22.762Z,101292.25
2023-04-20T08:16:14.246Z,101288.00
2023-04-20T08:17:05.789Z,101289.72
2023-04-20T08:17:57.247Z,101288.56
2023-04-20T08:18:48.706Z,101293.81
2023-04-20T08:19:42.299Z,101299.94
2023-04-20T08:20:35.498Z,101291.47
2023-04-20T08:21:28.752Z,101288.94
2023-04-20T08:22:20.780Z,101296.75
2023-04-20T08:23:14.317Z,101290.66
2023-04-20T08:24:07.578Z,101290.72
2023-04-20T08:24:59.435Z,101293.81
2023-04-20T08:25:50.951Z,101291.31
2023-04-20T08:26:44.397Z,101294.56
2023-04-20T08:27:35.849Z,101292.75
2023-04-20T08:28:33.511Z,101292.88
2023-04-20T08:29:25.767Z,101290.28
2023-04-20T08:30:17.262Z,101286.84
2023-04-20T08:31:08.975Z,101284.28
2023-04-20T08:32:00.574Z,101296.19
2023-04-20T08:32:53.593Z,101290.31
2023-04-20T08:33:45.315Z,101285.22
2023-04-20T08:34:37.266Z,101291.47
2023-04-20T08:35:30.191Z,101285.34
2023-04-20T08:36:21.610Z,101282.09
2023-04-20T08:37:13.027Z,101276.25
2023-04-20T08:38:11.354Z,101297.50
2023-04-20T08:39:10.256Z,101274.31
2023-04-20T08:40:01.710Z,101281.16
2023-04-20T08:40:53.159Z,101280.44
2023-04-20T08:41:44.701Z,101279.81
2023-04-20T08:42:38.107Z,101278.28
2023-04-20T08:43:29.521Z,101278.28
2023-04-20T08:44:21.545Z,101279.59
2023-04-20T08:45:13.223Z,101279.75
2023-04-20T08:46:05.071Z,101274.97
2023-04-20T08:46:57.111Z,101272.84
2023-04-20T08:47:50.024Z,101268.19
2023-04-20T08:48:45.830Z,101271.22
2023-04-20T08:49:42.348Z,101266.09
2023-04-20T08:50:34.362Z,101272.44
2023-04-20T08:51:26.209Z,101266.75
2023-04-20T08:52:17.591Z,101261.91
2023-04-20T08:53:09.888Z,101263.91
2023-04-20T08:54:08.218Z,101262.59
2023-04-20T08:54:59.766Z,101268.66
2023-04-20T08:55:51.303Z,101257.06
2023-04-20T08:56:48.200Z,101258.56
2023-04-20T08:57:40.045Z,101263.09
2023-04-20T08:58:34.498Z,101261.34
2023-04-20T08:59:26.358Z,101265.25
2023-04-20T09:00:18.617Z,101263.84
2023-04-20T09:01:11.156Z,101260.31
2023-04-20T09:02:11.424Z,101262.97
2023-04-20T09:03:03.139Z,101254.88
2023-04-20T09:03:55.085Z,101268.19
2023-04-20T09:04:49.107Z,101266.25
2023-04-20T09:05:41.401Z,101253.84
2023-04-20T09:06:34.454Z,101261.50
2023-04-20T09:07:33.673Z,101262.44
2023-04-20T09:08:39.139Z,101259.41
2023-04-20T09:09:30.887Z,101256.72
2023-04-20T09:10:26.463Z,101258.44
2023-04-20T09:11:24.880Z,101261.53
2023-04-20T09:12:16.482Z,101259.09
2023-04-20T09:13:08.242Z,101261.19
2023-04-20T09:14:12.500Z,101251.69
2023-04-20T09:15:06.899Z,101257.91
2023-04-20T09:15:58.413Z,101255.47
2023-04-20T09:16:52.172Z,101254.78
2023-04-20T09:17:43.684Z,101256.63
2023-04-20T09:18:35.156Z,101255.22
2023-04-20T09:19:28.676Z,101248.53
2023-04-20T09:20:36.572Z,101249.25
2023-04-20T09:21:28.601Z,101251.16
2023-04-20T09:22:30.275Z,101250.63
2023-04-20T09:23:22.883Z,101250.75
2023-04-20T09:24:15.722Z,101252.50
2023-04-20T09:25:17.922Z,101245.31
2023-04-20T09:26:18.681Z,101254.63
2023-04-20T09:27:18.588Z,101250.72
2023-04-20T09:28:10.532Z,101251.38
2023-04-20T09:29:05.450Z,101249.25
2023-04-20T09:30:01.376Z,101248.16
2023-04-20T09:30:52.855Z,101248.91
2023-04-20T09:31:44.485Z,101263.47
2023-04-20T09:32:36.112Z,101257.59
2023-04-20T09:33:36.663Z,101266.97
2023-04-20T09:34:28.905Z,101255.44
2023-04-20T09:35:23.917Z,101266.22
2023-04-20T09:36:17.587Z,101272.78
2023-04-20T09:37:09.663Z,101273.53
2023-04-20T09:38:01.139Z,101269.34
2023-04-20T09:39:03.928Z,101280.00
2023-04-20T09:40:02.950Z,101272.13
2023-04-20T09:40:54.733Z,101286.50
2023-04-20T09:41:47.514Z,101284.78
2023-04-20T09:42:42.780Z,101287.31
2023-04-20T09:43:36.102Z,101282.19
2023-04-20T09:44:27.694Z,101277.72
2023-04-20T09:45:19.278Z,101276.19
2023-04-20T09:46:11.428Z,101274.69
2023-04-20T09:47:03.079Z,101270.03
2023-04-20T09:47:57.280Z,101279.13
2023-04-20T09:48:49.605Z,101277.72
2023-04-20T09:49:43.915Z,101273.38
2023-04-20T09:50:48.336Z,101278.47
2023-04-20T09:51:46.180Z,101266.78
2023-04-20T09:52:38.444Z,101275.78
2023-04-20T09:53:31.274Z,101270.75
2023-04-20T09:54:24.065Z,101277.38
2023-04-20T09:55:17.598Z,101270.59
2023-04-20T09:56:12.610Z,101270.81
2023-04-20T09:57:05.847Z,101271.03
2023-04-20T09:58:01.761Z,101269.47
2023-04-20T09:58:57.646Z,101267.19
2023-04-20T09:59:53.165Z,101266.06
2023-04-20T10:00:44.925Z,101268.28
2023-04-20T10:01:38.081Z,101268.84
2023-04-20T10:02:30.006Z,101270.03
2023-04-20T10:03:21.962Z,101262.56
2023-04-20T10:04:14.846Z,101261.25
2023-04-20T10:05:53.439Z,101259.75
2023-04-20T10:07:10.476Z,101256.94
2023-04-20T10:08:07.197Z,101255.53
2023-04-20T10:09:05.035Z,101253.59